Sea Malinhead, Ireland
Current Conditions -  °F | °C
As of 8:20 AM on Saturday 29 Nov 2014 (Local Time) from EGAE Reporting Station
Broken Clouds Broken Clouds  
Wind Chill: 48°   Ceiling: 2200
Heat Index: 48°   Visibility: 4mi
Dew Point: 46°   Wind: 3mph
Humidity: 93%   Direction: 70°ENE
Pressure: 29.8"   Gusts: NA
Location:  55.5°N, 7.5°W
Report Text: EGAE 290720Z 07003KT 7000 FEW010 BKN022 09/08 Q1009
Loading
Personal Weather Stations






























Interactive Weather Map New forecast layout! Learn more

10-Day Weather Forecast

Advertisements
Track Severe Weather on mobile